createdAt,value
2018-02-08T17:34:46.347Z,51.20
2018-02-08T17:37:13.237Z,50.40
2018-02-08T17:39:39.509Z,49.20
2018-02-08T17:42:06.019Z,48.00
2018-02-08T17:44:32.243Z,47.20
2018-02-08T18:47:54.370Z,47.20
2018-02-08T18:59:50.312Z,41.90
2018-02-08T19:02:18.644Z,32.80
2018-02-08T19:04:44.892Z,29.50
2018-02-08T19:07:11.400Z,27.90
2018-02-08T19:09:38.440Z,26.90
2018-02-08T19:12:04.664Z,26.70
2018-02-08T19:14:30.904Z,26.80
2018-02-08T19:16:57.161Z,27.20
2018-02-08T19:19:23.417Z,27.60
2018-02-08T19:21:50.510Z,28.60
2018-02-08T19:24:16.816Z,28.50
2018-02-08T19:26:43.864Z,29.70
2018-02-08T19:29:10.128Z,29.60
2018-02-08T19:31:36.373Z,30.30
2018-02-08T19:34:02.696Z,31.20
2018-02-08T19:36:29.721Z,32.50
2018-02-08T19:38:56.025Z,32.50
2018-02-08T19:41:22.307Z,34.20
2018-02-08T19:43:48.837Z,34.70
2018-02-08T19:46:15.098Z,35.40
2018-02-08T19:48:41.416Z,36.20
2018-02-08T19:51:07.787Z,36.50
2018-02-08T19:53:34.037Z,36.80
2018-02-08T19:56:01.098Z,37.80
2018-02-08T19:58:27.356Z,37.90
2018-02-08T20:00:54.349Z,39.00
2018-02-08T20:03:20.617Z,39.00
2018-02-08T20:05:47.172Z,39.30
2018-02-08T20:08:13.452Z,39.70
2018-02-08T20:10:40.461Z,40.40
2018-02-08T20:13:06.746Z,40.40
2018-02-08T20:15:33.769Z,40.80
2018-02-08T20:18:00.045Z,40.80
2018-02-08T20:20:26.313Z,41.00
2018-02-08T20:22:52.613Z,41.40
2018-02-08T20:25:18.897Z,41.60
2018-02-08T20:27:45.191Z,42.00
2018-02-08T20:30:11.483Z,42.40
2018-02-08T20:32:37.737Z,42.60
2018-02-08T20:35:04.337Z,43.00
2018-02-08T20:37:31.397Z,43.20
2018-02-08T20:39:58.445Z,43.40
2018-02-08T20:42:31.464Z,43.70
2018-02-08T20:44:57.745Z,43.50
2018-02-08T20:47:24.053Z,43.60
2018-02-08T20:49:56.378Z,43.70
2018-02-08T20:52:22.622Z,43.90
2018-02-08T20:54:49.603Z,44.10
2018-02-08T20:57:17.249Z,44.20
2018-02-08T20:59:43.504Z,44.20
2018-02-08T21:02:09.789Z,44.20
2018-02-08T21:04:37.209Z,44.40
2018-02-08T21:07:03.477Z,44.40
2018-02-08T21:09:30.450Z,44.40
2018-02-08T21:11:57.475Z,44.50
2018-02-08T21:14:23.732Z,44.50
2018-02-08T21:16:49.991Z,44.60
2018-02-08T21:19:16.293Z,44.40
2018-02-08T21:21:42.607Z,44.50
2018-02-08T21:24:08.951Z,44.50
2018-02-08T21:26:35.887Z,44.60
2018-02-08T21:29:02.157Z,44.80
2018-02-08T21:41:14.239Z,44.80
2018-02-08T21:43:42.247Z,45.30
2018-02-08T21:55:54.281Z,45.30
2018-02-08T21:58:20.797Z,45.70
2018-02-08T22:00:47.047Z,46.30
2018-02-08T22:03:14.289Z,46.60
2018-02-08T22:05:41.267Z,46.60
2018-02-08T22:08:08.551Z,46.60
2018-02-08T22:10:34.858Z,46.70
2018-02-08T22:13:01.835Z,46.50
2018-02-08T22:15:28.117Z,46.50
2018-02-08T22:17:54.419Z,46.40
2018-02-08T22:20:20.691Z,46.40
2018-02-08T22:22:46.945Z,46.40
2018-02-08T22:25:13.207Z,46.30
2018-02-08T22:27:40.203Z,46.50
2018-02-08T22:30:06.446Z,46.50
2018-02-08T22:32:32.987Z,46.40
2018-02-08T22:34:59.259Z,46.40
2018-02-08T22:37:26.411Z,46.30
2018-02-08T22:39:52.697Z,46.10
2018-02-08T22:42:19.711Z,46.20
2018-02-08T22:44:45.965Z,46.30
2018-02-08T22:47:12.267Z,46.20
2018-02-08T22:49:38.560Z,46.20
2018-02-08T22:52:04.817Z,46.10
2018-02-08T22:54:31.835Z,46.70
2018-02-08T23:06:43.869Z,46.90
2018-02-08T23:09:10.871Z,47.50
2018-02-08T23:11:37.131Z,47.60
2018-02-08T23:14:03.441Z,47.70
2018-02-08T23:16:30.420Z,47.70
2018-02-08T23:18:56.757Z,47.80
2018-02-08T23:21:23.715Z,47.80
2018-02-08T23:23:49.956Z,47.70
2018-02-08T23:26:16.245Z,47.70
2018-02-08T23:28:42.537Z,47.60
2018-02-08T23:31:09.527Z,47.50
2018-02-08T23:33:35.787Z,47.50
2018-02-08T23:36:02.349Z,47.30
2018-02-08T23:38:28.593Z,47.30
2018-02-08T23:40:54.843Z,47.20
2018-02-08T23:43:21.875Z,46.90
2018-02-08T23:45:48.135Z,47.20
2018-02-08T23:48:14.385Z,47.20
2018-02-08T23:50:40.917Z,47.30
2018-02-08T23:53:07.187Z,47.40
2018-02-08T23:55:34.165Z,47.50
2018-02-08T23:58:00.447Z,47.40
